sensor_id;sensor_type;location;lat;lon;timestamp;P1;durP1;ratioP1;P2;durP2;ratioP2
9712;SDS011;4895;50.926;6.870;2023-02-15T00:01:22;60.27;;;27.70;;
9712;SDS011;4895;50.926;6.870;2023-02-15T00:03:48;56.13;;;26.30;;
9712;SDS011;4895;50.926;6.870;2023-02-15T00:06:14;55.90;;;26.40;;
9712;SDS011;4895;50.926;6.870;2023-02-15T00:08:39;52.53;;;24.13;;
9712;SDS011;4895;50.926;6.870;2023-02-15T00:11:08;56.60;;;25.77;;
9712;SDS011;4895;50.926;6.870;2023-02-15T00:13:38;52.07;;;26.40;;
9712;SDS011;4895;50.926;6.870;2023-02-15T00:16:07;55.63;;;26.90;;
9712;SDS011;4895;50.926;6.870;2023-02-15T00:18:35;54.80;;;25.10;;
9712;SDS011;4895;50.926;6.870;2023-02-15T00:21:04;60.03;;;25.40;;
9712;SDS011;4895;50.926;6.870;2023-02-15T00:23:31;56.90;;;26.33;;
9712;SDS011;4895;50.926;6.870;2023-02-15T00:26:11;54.53;;;24.93;;
9712;SDS011;4895;50.926;6.870;2023-02-15T00:28:37;52.80;;;24.87;;
9712;SDS011;4895;50.926;6.870;2023-02-15T00:31:05;52.77;;;25.50;;
9712;SDS011;4895;50.926;6.870;2023-02-15T00:33:32;56.00;;;26.33;;
9712;SDS011;4895;50.926;6.870;2023-02-15T00:35:58;48.33;;;24.03;;
9712;SDS011;4895;50.926;6.870;2023-02-15T00:38:24;54.97;;;24.40;;
9712;SDS011;4895;50.926;6.870;2023-02-15T00:40:55;49.13;;;23.90;;
9712;SDS011;4895;50.926;6.870;2023-02-15T00:43:22;53.43;;;26.47;;
9712;SDS011;4895;50.926;6.870;2023-02-15T00:45:47;51.87;;;24.27;;
9712;SDS011;4895;50.926;6.870;2023-02-15T00:48:13;51.97;;;24.23;;
9712;SDS011;4895;50.926;6.870;2023-02-15T00:50:38;57.07;;;25.40;;
9712;SDS011;4895;50.926;6.870;2023-02-15T00:53:03;54.40;;;25.83;;
9712;SDS011;4895;50.926;6.870;2023-02-15T00:55:28;54.13;;;24.87;;
9712;SDS011;4895;50.926;6.870;2023-02-15T00:57:54;51.97;;;25.70;;
9712;SDS011;4895;50.926;6.870;2023-02-15T01:00:19;54.93;;;26.30;;
9712;SDS011;4895;50.926;6.870;2023-02-15T01:02:44;61.80;;;25.83;;
9712;SDS011;4895;50.926;6.870;2023-02-15T01:05:10;53.17;;;24.37;;
9712;SDS011;4895;50.926;6.870;2023-02-15T01:07:35;56.27;;;26.27;;
9712;SDS011;4895;50.926;6.870;2023-02-15T01:10:00;56.47;;;25.07;;
9712;SDS011;4895;50.926;6.870;2023-02-15T01:12:25;60.60;;;27.27;;
9712;SDS011;4895;50.926;6.870;2023-02-15T01:14:51;58.40;;;26.77;;
9712;SDS011;4895;50.926;6.870;2023-02-15T01:17:16;57.77;;;26.43;;
9712;SDS011;4895;50.926;6.870;2023-02-15T01:19:41;53.73;;;24.87;;
9712;SDS011;4895;50.926;6.870;2023-02-15T01:22:07;57.23;;;26.63;;
9712;SDS011;4895;50.926;6.870;2023-02-15T01:24:32;55.83;;;25.17;;
9712;SDS011;4895;50.926;6.870;2023-02-15T01:26:57;54.13;;;25.67;;
9712;SDS011;4895;50.926;6.870;2023-02-15T01:29:22;51.33;;;24.60;;
9712;SDS011;4895;50.926;6.870;2023-02-15T01:31:48;44.47;;;21.00;;
9712;SDS011;4895;50.926;6.870;2023-02-15T01:34:13;54.10;;;24.93;;
9712;SDS011;4895;50.926;6.870;2023-02-15T01:36:38;51.97;;;24.53;;
9712;SDS011;4895;50.926;6.870;2023-02-15T01:39:03;68.67;;;25.30;;
9712;SDS011;4895;50.926;6.870;2023-02-15T01:41:29;54.70;;;25.17;;
9712;SDS011;4895;50.926;6.870;2023-02-15T01:44:03;53.03;;;25.50;;
9712;SDS011;4895;50.926;6.870;2023-02-15T01:46:58;50.33;;;21.73;;
9712;SDS011;4895;50.926;6.870;2023-02-15T01:49:23;57.67;;;26.60;;
9712;SDS011;4895;50.926;6.870;2023-02-15T01:51:51;54.80;;;24.30;;
9712;SDS011;4895;50.926;6.870;2023-02-15T01:54:21;64.90;;;26.50;;
9712;SDS011;4895;50.926;6.870;2023-02-15T01:56:49;58.23;;;25.47;;
9712;SDS011;4895;50.926;6.870;2023-02-15T01:59:17;51.10;;;23.53;;
9712;SDS011;4895;50.926;6.870;2023-02-15T02:01:44;51.37;;;24.47;;
9712;SDS011;4895;50.926;6.870;2023-02-15T02:04:13;49.60;;;23.10;;
9712;SDS011;4895;50.926;6.870;2023-02-15T02:06:42;58.10;;;25.67;;
9712;SDS011;4895;50.926;6.870;2023-02-15T02:09:09;58.53;;;25.77;;
9712;SDS011;4895;50.926;6.870;2023-02-15T02:11:35;59.43;;;25.13;;
9712;SDS011;4895;50.926;6.870;2023-02-15T02:14:00;50.77;;;24.17;;
9712;SDS011;4895;50.926;6.870;2023-02-15T02:30:31;46.00;;;23.57;;
9712;SDS011;4895;50.926;6.870;2023-02-15T02:36:20;49.53;;;23.83;;
9712;SDS011;4895;50.926;6.870;2023-02-15T02:41:27;50.37;;;22.23;;
9712;SDS011;4895;50.926;6.870;2023-02-15T02:44:00;55.13;;;24.17;;
9712;SDS011;4895;50.926;6.870;2023-02-15T02:46:35;53.43;;;24.43;;
9712;SDS011;4895;50.926;6.870;2023-02-15T02:49:03;62.77;;;25.53;;
9712;SDS011;4895;50.926;6.870;2023-02-15T02:51:29;52.50;;;25.20;;
9712;SDS011;4895;50.926;6.870;2023-02-15T02:53:55;57.37;;;26.10;;
9712;SDS011;4895;50.926;6.870;2023-02-15T02:56:29;63.77;;;26.60;;
9712;SDS011;4895;50.926;6.870;2023-02-15T02:59:02;54.37;;;23.80;;
9712;SDS011;4895;50.926;6.870;2023-02-15T03:01:34;53.37;;;24.20;;
9712;SDS011;4895;50.926;6.870;2023-02-15T03:04:04;54.00;;;24.73;;
9712;SDS011;4895;50.926;6.870;2023-02-15T03:06:42;59.70;;;24.97;;
9712;SDS011;4895;50.926;6.870;2023-02-15T03:12:21;56.90;;;25.63;;
9712;SDS011;4895;50.926;6.870;2023-02-15T03:14:49;62.13;;;26.97;;
9712;SDS011;4895;50.926;6.870;2023-02-15T03:17:18;65.03;;;25.00;;
9712;SDS011;4895;50.926;6.870;2023-02-15T03:19:45;68.10;;;25.00;;
9712;SDS011;4895;50.926;6.870;2023-02-15T03:27:22;57.43;;;25.57;;
9712;SDS011;4895;50.926;6.870;2023-02-15T03:29:51;58.00;;;25.40;;
9712;SDS011;4895;50.926;6.870;2023-02-15T03:32:18;61.30;;;26.47;;
9712;SDS011;4895;50.926;6.870;2023-02-15T03:34:44;54.77;;;24.37;;
9712;SDS011;4895;50.926;6.870;2023-02-15T03:43:00;52.83;;;24.00;;
9712;SDS011;4895;50.926;6.870;2023-02-15T03:45:30;67.17;;;25.77;;
9712;SDS011;4895;50.926;6.870;2023-02-15T03:47:56;59.93;;;23.80;;
9712;SDS011;4895;50.926;6.870;2023-02-15T03:50:30;55.83;;;23.40;;
9712;SDS011;4895;50.926;6.870;2023-02-15T03:53:15;53.67;;;23.80;;
9712;SDS011;4895;50.926;6.870;2023-02-15T03:55:46;52.23;;;24.10;;
9712;SDS011;4895;50.926;6.870;2023-02-15T03:58:14;51.10;;;22.33;;
9712;SDS011;4895;50.926;6.870;2023-02-15T04:00:59;56.83;;;23.90;;
9712;SDS011;4895;50.926;6.870;2023-02-15T04:06:34;58.23;;;24.30;;
9712;SDS011;4895;50.926;6.870;2023-02-15T04:08:59;57.30;;;24.87;;
9712;SDS011;4895;50.926;6.870;2023-02-15T04:11:43;50.87;;;23.77;;
9712;SDS011;4895;50.926;6.870;2023-02-15T04:14:09;61.60;;;25.50;;
9712;SDS011;4895;50.926;6.870;2023-02-15T04:17:12;55.90;;;23.47;;
9712;SDS011;4895;50.926;6.870;2023-02-15T04:19:38;52.80;;;21.57;;
9712;SDS011;4895;50.926;6.870;2023-02-15T04:22:21;56.17;;;25.00;;
9712;SDS011;4895;50.926;6.870;2023-02-15T04:25:06;61.37;;;24.30;;
9712;SDS011;4895;50.926;6.870;2023-02-15T04:27:34;57.70;;;24.67;;
9712;SDS011;4895;50.926;6.870;2023-02-15T04:30:00;52.23;;;23.70;;
9712;SDS011;4895;50.926;6.870;2023-02-15T04:32:25;58.17;;;24.87;;
9712;SDS011;4895;50.926;6.870;2023-02-15T04:34:51;54.03;;;25.83;;
9712;SDS011;4895;50.926;6.870;2023-02-15T04:37:16;59.73;;;22.77;;
9712;SDS011;4895;50.926;6.870;2023-02-15T04:39:41;60.13;;;24.63;;
9712;SDS011;4895;50.926;6.870;2023-02-15T04:42:06;56.97;;;22.57;;
9712;SDS011;4895;50.926;6.870;2023-02-15T04:44:32;53.07;;;23.30;;
9712;SDS011;4895;50.926;6.870;2023-02-15T04:46:57;55.70;;;24.47;;
9712;SDS011;4895;50.926;6.870;2023-02-15T04:49:22;40.13;;;18.70;;
9712;SDS011;4895;50.926;6.870;2023-02-15T04:51:48;60.63;;;25.90;;
9712;SDS011;4895;50.926;6.870;2023-02-15T04:54:13;54.43;;;24.73;;
9712;SDS011;4895;50.926;6.870;2023-02-15T04:56:39;57.90;;;24.33;;
9712;SDS011;4895;50.926;6.870;2023-02-15T04:59:04;53.60;;;23.07;;
9712;SDS011;4895;50.926;6.870;2023-02-15T05:01:30;46.43;;;21.60;;
9712;SDS011;4895;50.926;6.870;2023-02-15T05:03:55;57.63;;;24.10;;
9712;SDS011;4895;50.926;6.870;2023-02-15T05:06:21;52.27;;;22.73;;
9712;SDS011;4895;50.926;6.870;2023-02-15T05:08:46;55.70;;;24.20;;
9712;SDS011;4895;50.926;6.870;2023-02-15T05:11:11;46.83;;;20.60;;
9712;SDS011;4895;50.926;6.870;2023-02-15T05:13:36;53.97;;;24.53;;
9712;SDS011;4895;50.926;6.870;2023-02-15T05:16:02;53.23;;;23.13;;
9712;SDS011;4895;50.926;6.870;2023-02-15T05:18:27;56.27;;;21.80;;
9712;SDS011;4895;50.926;6.870;2023-02-15T05:20:52;51.83;;;22.70;;
9712;SDS011;4895;50.926;6.870;2023-02-15T05:23:18;44.33;;;19.70;;
9712;SDS011;4895;50.926;6.870;2023-02-15T05:25:47;49.33;;;21.53;;
9712;SDS011;4895;50.926;6.870;2023-02-15T05:28:31;50.73;;;20.07;;
9712;SDS011;4895;50.926;6.870;2023-02-15T05:33:38;53.37;;;21.83;;
9712;SDS011;4895;50.926;6.870;2023-02-15T05:36:04;55.47;;;21.80;;
9712;SDS011;4895;50.926;6.870;2023-02-15T05:38:30;54.60;;;23.77;;
9712;SDS011;4895;50.926;6.870;2023-02-15T05:40:56;53.93;;;23.67;;
9712;SDS011;4895;50.926;6.870;2023-02-15T05:43:21;46.60;;;20.60;;
9712;SDS011;4895;50.926;6.870;2023-02-15T05:45:47;51.00;;;22.50;;
9712;SDS011;4895;50.926;6.870;2023-02-15T05:48:14;49.90;;;22.20;;
9712;SDS011;4895;50.926;6.870;2023-02-15T05:50:40;56.17;;;23.13;;
9712;SDS011;4895;50.926;6.870;2023-02-15T05:53:05;51.83;;;22.23;;
9712;SDS011;4895;50.926;6.870;2023-02-15T05:55:30;48.50;;;20.90;;
9712;SDS011;4895;50.926;6.870;2023-02-15T05:57:56;46.50;;;21.80;;
9712;SDS011;4895;50.926;6.870;2023-02-15T06:00:21;46.00;;;19.30;;
9712;SDS011;4895;50.926;6.870;2023-02-15T06:02:46;51.93;;;23.07;;
9712;SDS011;4895;50.926;6.870;2023-02-15T06:05:12;53.10;;;22.67;;
9712;SDS011;4895;50.926;6.870;2023-02-15T06:07:37;49.63;;;22.50;;
9712;SDS011;4895;50.926;6.870;2023-02-15T06:10:03;47.60;;;21.77;;
9712;SDS011;4895;50.926;6.870;2023-02-15T06:12:29;52.27;;;22.57;;
9712;SDS011;4895;50.926;6.870;2023-02-15T06:14:54;53.20;;;23.63;;
9712;SDS011;4895;50.926;6.870;2023-02-15T06:17:19;44.50;;;19.60;;
9712;SDS011;4895;50.926;6.870;2023-02-15T06:19:46;56.43;;;22.30;;
9712;SDS011;4895;50.926;6.870;2023-02-15T06:22:11;49.10;;;22.60;;
9712;SDS011;4895;50.926;6.870;2023-02-15T06:24:38;51.13;;;22.17;;
9712;SDS011;4895;50.926;6.870;2023-02-15T06:27:04;51.47;;;23.00;;
9712;SDS011;4895;50.926;6.870;2023-02-15T06:29:29;53.47;;;22.07;;
9712;SDS011;4895;50.926;6.870;2023-02-15T06:31:54;48.73;;;22.53;;
9712;SDS011;4895;50.926;6.870;2023-02-15T06:34:20;53.20;;;22.67;;
9712;SDS011;4895;50.926;6.870;2023-02-15T06:36:45;48.90;;;21.03;;
9712;SDS011;4895;50.926;6.870;2023-02-15T06:39:10;45.37;;;20.50;;
9712;SDS011;4895;50.926;6.870;2023-02-15T06:41:36;49.17;;;21.03;;
9712;SDS011;4895;50.926;6.870;2023-02-15T06:44:01;54.27;;;21.17;;
9712;SDS011;4895;50.926;6.870;2023-02-15T06:46:26;53.50;;;22.00;;
9712;SDS011;4895;50.926;6.870;2023-02-15T06:48:52;50.93;;;22.87;;
9712;SDS011;4895;50.926;6.870;2023-02-15T06:51:17;38.30;;;19.00;;
9712;SDS011;4895;50.926;6.870;2023-02-15T06:53:42;48.23;;;22.77;;
9712;SDS011;4895;50.926;6.870;2023-02-15T06:56:08;41.83;;;20.50;;
9712;SDS011;4895;50.926;6.870;2023-02-15T06:58:37;45.03;;;18.60;;
9712;SDS011;4895;50.926;6.870;2023-02-15T07:01:05;43.47;;;19.77;;
9712;SDS011;4895;50.926;6.870;2023-02-15T07:03:31;44.03;;;20.37;;
9712;SDS011;4895;50.926;6.870;2023-02-15T07:05:58;50.27;;;21.33;;
9712;SDS011;4895;50.926;6.870;2023-02-15T07:08:24;46.67;;;20.33;;
9712;SDS011;4895;50.926;6.870;2023-02-15T07:10:50;46.43;;;19.47;;
9712;SDS011;4895;50.926;6.870;2023-02-15T07:13:16;43.70;;;20.90;;
9712;SDS011;4895;50.926;6.870;2023-02-15T07:15:42;46.33;;;20.53;;
9712;SDS011;4895;50.926;6.870;2023-02-15T07:18:08;43.30;;;18.70;;
9712;SDS011;4895;50.926;6.870;2023-02-15T07:20:34;48.83;;;21.87;;
9712;SDS011;4895;50.926;6.870;2023-02-15T07:23:00;42.40;;;20.30;;
9712;SDS011;4895;50.926;6.870;2023-02-15T07:25:26;45.10;;;20.97;;
9712;SDS011;4895;50.926;6.870;2023-02-15T07:27:57;42.23;;;18.80;;
9712;SDS011;4895;50.926;6.870;2023-02-15T07:30:23;34.37;;;17.97;;
9712;SDS011;4895;50.926;6.870;2023-02-15T07:32:49;47.80;;;20.67;;
9712;SDS011;4895;50.926;6.870;2023-02-15T07:35:33;41.07;;;19.47;;
9712;SDS011;4895;50.926;6.870;2023-02-15T07:37:58;46.43;;;20.30;;
9712;SDS011;4895;50.926;6.870;2023-02-15T07:40:24;48.97;;;20.90;;
9712;SDS011;4895;50.926;6.870;2023-02-15T07:42:49;45.87;;;21.17;;
9712;SDS011;4895;50.926;6.870;2023-02-15T07:45:17;45.07;;;19.47;;
9712;SDS011;4895;50.926;6.870;2023-02-15T07:47:42;42.33;;;19.37;;
9712;SDS011;4895;50.926;6.870;2023-02-15T07:50:08;48.53;;;19.07;;
9712;SDS011;4895;50.926;6.870;2023-02-15T07:52:33;37.57;;;17.63;;
9712;SDS011;4895;50.926;6.870;2023-02-15T07:54:58;41.07;;;19.47;;
9712;SDS011;4895;50.926;6.870;2023-02-15T07:57:23;43.13;;;20.20;;
9712;SDS011;4895;50.926;6.870;2023-02-15T07:59:49;38.50;;;20.10;;
9712;SDS011;4895;50.926;6.870;2023-02-15T08:02:14;44.00;;;20.60;;
9712;SDS011;4895;50.926;6.870;2023-02-15T08:04:39;46.43;;;20.63;;
9712;SDS011;4895;50.926;6.870;2023-02-15T08:07:05;34.73;;;18.23;;
9712;SDS011;4895;50.926;6.870;2023-02-15T08:09:30;38.97;;;18.40;;
9712;SDS011;4895;50.926;6.870;2023-02-15T08:11:55;41.27;;;20.33;;
9712;SDS011;4895;50.926;6.870;2023-02-15T08:14:21;37.43;;;18.47;;
9712;SDS011;4895;50.926;6.870;2023-02-15T08:16:50;39.43;;;19.40;;
9712;SDS011;4895;50.926;6.870;2023-02-15T08:21:47;37.57;;;19.50;;
9712;SDS011;4895;50.926;6.870;2023-02-15T08:24:32;40.90;;;19.43;;
9712;SDS011;4895;50.926;6.870;2023-02-15T08:26:59;38.40;;;18.93;;
9712;SDS011;4895;50.926;6.870;2023-02-15T08:29:25;37.37;;;19.13;;
9712;SDS011;4895;50.926;6.870;2023-02-15T08:31:52;39.23;;;18.30;;
9712;SDS011;4895;50.926;6.870;2023-02-15T08:34:19;38.27;;;18.03;;
9712;SDS011;4895;50.926;6.870;2023-02-15T08:36:45;36.00;;;17.63;;
9712;SDS011;4895;50.926;6.870;2023-02-15T08:39:11;32.93;;;16.87;;
9712;SDS011;4895;50.926;6.870;2023-02-15T08:41:37;31.83;;;15.43;;
9712;SDS011;4895;50.926;6.870;2023-02-15T08:44:06;35.50;;;17.63;;
9712;SDS011;4895;50.926;6.870;2023-02-15T08:46:33;31.43;;;16.40;;
9712;SDS011;4895;50.926;6.870;2023-02-15T08:49:00;31.60;;;15.70;;
9712;SDS011;4895;50.926;6.870;2023-02-15T08:51:26;27.33;;;14.80;;
9712;SDS011;4895;50.926;6.870;2023-02-15T08:53:55;29.90;;;15.47;;
9712;SDS011;4895;50.926;6.870;2023-02-15T08:56:22;29.73;;;15.70;;
9712;SDS011;4895;50.926;6.870;2023-02-15T08:58:49;30.40;;;15.90;;
9712;SDS011;4895;50.926;6.870;2023-02-15T09:01:16;32.63;;;15.60;;
9712;SDS011;4895;50.926;6.870;2023-02-15T09:03:43;27.90;;;15.70;;
9712;SDS011;4895;50.926;6.870;2023-02-15T09:06:09;26.77;;;15.77;;
9712;SDS011;4895;50.926;6.870;2023-02-15T09:08:35;31.43;;;15.10;;
9712;SDS011;4895;50.926;6.870;2023-02-15T09:13:31;25.83;;;14.23;;
9712;SDS011;4895;50.926;6.870;2023-02-15T09:16:03;31.90;;;16.70;;
9712;SDS011;4895;50.926;6.870;2023-02-15T09:18:30;30.57;;;14.33;;
9712;SDS011;4895;50.926;6.870;2023-02-15T09:21:03;27.33;;;15.63;;
9712;SDS011;4895;50.926;6.870;2023-02-15T09:23:29;28.63;;;15.20;;
9712;SDS011;4895;50.926;6.870;2023-02-15T09:25:54;25.27;;;13.77;;
9712;SDS011;4895;50.926;6.870;2023-02-15T09:28:19;23.10;;;14.23;;
9712;SDS011;4895;50.926;6.870;2023-02-15T09:30:45;24.60;;;14.33;;
9712;SDS011;4895;50.926;6.870;2023-02-15T09:33:10;26.13;;;14.27;;
9712;SDS011;4895;50.926;6.870;2023-02-15T09:35:35;26.27;;;14.27;;
9712;SDS011;4895;50.926;6.870;2023-02-15T09:38:00;22.83;;;13.40;;
9712;SDS011;4895;50.926;6.870;2023-02-15T09:40:26;26.80;;;15.40;;
9712;SDS011;4895;50.926;6.870;2023-02-15T09:42:58;24.10;;;14.87;;
9712;SDS011;4895;50.926;6.870;2023-02-15T09:46:04;24.67;;;11.73;;
9712;SDS011;4895;50.926;6.870;2023-02-15T09:48:38;25.33;;;15.10;;
9712;SDS011;4895;50.926;6.870;2023-02-15T09:51:09;28.13;;;15.17;;
9712;SDS011;4895;50.926;6.870;2023-02-15T09:54:02;28.10;;;13.80;;
9712;SDS011;4895;50.926;6.870;2023-02-15T09:56:42;23.10;;;13.77;;
9712;SDS011;4895;50.926;6.870;2023-02-15T09:59:19;25.13;;;14.33;;
9712;SDS011;4895;50.926;6.870;2023-02-15T10:20:56;21.20;;;12.70;;
9712;SDS011;4895;50.926;6.870;2023-02-15T10:34:21;25.63;;;15.10;;
9712;SDS011;4895;50.926;6.870;2023-02-15T10:42:47;24.77;;;13.60;;
9712;SDS011;4895;50.926;6.870;2023-02-15T10:50:54;24.70;;;15.23;;
9712;SDS011;4895;50.926;6.870;2023-02-15T11:06:39;28.13;;;14.70;;
9712;SDS011;4895;50.926;6.870;2023-02-15T11:09:09;23.97;;;14.00;;
9712;SDS011;4895;50.926;6.870;2023-02-15T11:11:38;24.20;;;13.40;;
9712;SDS011;4895;50.926;6.870;2023-02-15T11:14:10;24.23;;;14.53;;
9712;SDS011;4895;50.926;6.870;2023-02-15T11:16:40;23.20;;;13.77;;
9712;SDS011;4895;50.926;6.870;2023-02-15T11:19:14;27.80;;;15.17;;
9712;SDS011;4895;50.926;6.870;2023-02-15T11:21:48;26.80;;;14.20;;
9712;SDS011;4895;50.926;6.870;2023-02-15T11:24:18;26.93;;;14.13;;
9712;SDS011;4895;50.926;6.870;2023-02-15T11:26:53;25.80;;;14.97;;
9712;SDS011;4895;50.926;6.870;2023-02-15T11:29:26;24.47;;;14.23;;
9712;SDS011;4895;50.926;6.870;2023-02-15T11:31:59;22.13;;;13.67;;
9712;SDS011;4895;50.926;6.870;2023-02-15T11:34:34;30.43;;;14.80;;
9712;SDS011;4895;50.926;6.870;2023-02-15T11:37:04;26.50;;;15.57;;
9712;SDS011;4895;50.926;6.870;2023-02-15T11:39:33;25.53;;;13.23;;
9712;SDS011;4895;50.926;6.870;2023-02-15T11:42:01;23.93;;;13.77;;
9712;SDS011;4895;50.926;6.870;2023-02-15T11:44:34;21.37;;;14.23;;
9712;SDS011;4895;50.926;6.870;2023-02-15T11:47:02;23.57;;;15.50;;
9712;SDS011;4895;50.926;6.870;2023-02-15T11:51:56;22.80;;;14.00;;
9712;SDS011;4895;50.926;6.870;2023-02-15T11:54:26;26.53;;;14.70;;
9712;SDS011;4895;50.926;6.870;2023-02-15T11:56:58;22.13;;;13.20;;
9712;SDS011;4895;50.926;6.870;2023-02-15T11:59:29;20.20;;;12.93;;
9712;SDS011;4895;50.926;6.870;2023-02-15T12:01:57;26.97;;;14.47;;
9712;SDS011;4895;50.926;6.870;2023-02-15T12:04:28;24.73;;;13.87;;
9712;SDS011;4895;50.926;6.870;2023-02-15T12:09:34;25.50;;;15.20;;
9712;SDS011;4895;50.926;6.870;2023-02-15T12:14:49;24.13;;;14.10;;
9712;SDS011;4895;50.926;6.870;2023-02-15T12:17:16;25.63;;;14.20;;
9712;SDS011;4895;50.926;6.870;2023-02-15T12:19:42;22.27;;;13.60;;
9712;SDS011;4895;50.926;6.870;2023-02-15T12:22:51;21.30;;;14.03;;
9712;SDS011;4895;50.926;6.870;2023-02-15T12:24:58;24.80;;;14.67;;
9712;SDS011;4895;50.926;6.870;2023-02-15T12:27:26;25.00;;;14.50;;
9712;SDS011;4895;50.926;6.870;2023-02-15T12:29:58;22.47;;;14.37;;
9712;SDS011;4895;50.926;6.870;2023-02-15T12:32:34;24.73;;;14.50;;
9712;SDS011;4895;50.926;6.870;2023-02-15T12:35:01;31.20;;;15.73;;
9712;SDS011;4895;50.926;6.870;2023-02-15T12:37:35;22.40;;;14.63;;
9712;SDS011;4895;50.926;6.870;2023-02-15T12:40:02;21.00;;;14.00;;
9712;SDS011;4895;50.926;6.870;2023-02-15T12:42:44;23.17;;;14.13;;
9712;SDS011;4895;50.926;6.870;2023-02-15T12:45:20;20.60;;;12.07;;
9712;SDS011;4895;50.926;6.870;2023-02-15T12:48:07;26.43;;;15.20;;
9712;SDS011;4895;50.926;6.870;2023-02-15T12:50:46;20.93;;;12.87;;
9712;SDS011;4895;50.926;6.870;2023-02-15T16:08:07;26.63;;;13.80;;
9712;SDS011;4895;50.926;6.870;2023-02-15T16:10:32;26.13;;;13.53;;
9712;SDS011;4895;50.926;6.870;2023-02-15T16:13:02;22.97;;;13.30;;
9712;SDS011;4895;50.926;6.870;2023-02-15T16:18:11;21.17;;;13.53;;
9712;SDS011;4895;50.926;6.870;2023-02-15T16:20:39;25.50;;;12.97;;
9712;SDS011;4895;50.926;6.870;2023-02-15T16:28:55;21.00;;;12.80;;
9712;SDS011;4895;50.926;6.870;2023-02-15T16:31:21;26.30;;;14.33;;
9712;SDS011;4895;50.926;6.870;2023-02-15T16:33:47;23.57;;;14.20;;
9712;SDS011;4895;50.926;6.870;2023-02-15T16:36:23;24.30;;;14.40;;
9712;SDS011;4895;50.926;6.870;2023-02-15T16:41:15;25.30;;;14.83;;
9712;SDS011;4895;50.926;6.870;2023-02-15T16:43:43;29.07;;;16.20;;
9712;SDS011;4895;50.926;6.870;2023-02-15T16:46:10;23.40;;;14.20;;
9712;SDS011;4895;50.926;6.870;2023-02-15T16:48:39;27.60;;;14.80;;
9712;SDS011;4895;50.926;6.870;2023-02-15T16:51:06;24.40;;;14.10;;
9712;SDS011;4895;50.926;6.870;2023-02-15T16:53:33;22.30;;;14.63;;
9712;SDS011;4895;50.926;6.870;2023-02-15T16:55:59;25.00;;;13.40;;
9712;SDS011;4895;50.926;6.870;2023-02-15T16:58:38;23.53;;;15.13;;
9712;SDS011;4895;50.926;6.870;2023-02-15T17:01:07;25.80;;;14.57;;
9712;SDS011;4895;50.926;6.870;2023-02-15T17:03:34;27.23;;;14.83;;
9712;SDS011;4895;50.926;6.870;2023-02-15T17:06:00;25.07;;;14.20;;
9712;SDS011;4895;50.926;6.870;2023-02-15T17:08:27;28.90;;;16.17;;
9712;SDS011;4895;50.926;6.870;2023-02-15T17:11:20;24.57;;;13.97;;
9712;SDS011;4895;50.926;6.870;2023-02-15T17:16:35;28.70;;;15.27;;
9712;SDS011;4895;50.926;6.870;2023-02-15T17:19:20;28.83;;;17.10;;
9712;SDS011;4895;50.926;6.870;2023-02-15T17:22:01;29.73;;;15.13;;
9712;SDS011;4895;50.926;6.870;2023-02-15T17:24:33;23.63;;;15.30;;
9712;SDS011;4895;50.926;6.870;2023-02-15T17:27:23;25.80;;;15.57;;
9712;SDS011;4895;50.926;6.870;2023-02-15T17:29:48;26.10;;;14.67;;
9712;SDS011;4895;50.926;6.870;2023-02-15T17:32:23;24.33;;;14.10;;
9712;SDS011;4895;50.926;6.870;2023-02-15T17:34:57;24.53;;;14.70;;
9712;SDS011;4895;50.926;6.870;2023-02-15T17:40:10;27.03;;;15.93;;
9712;SDS011;4895;50.926;6.870;2023-02-15T17:42:41;22.73;;;14.47;;
9712;SDS011;4895;50.926;6.870;2023-02-15T17:45:07;26.10;;;14.80;;
9712;SDS011;4895;50.926;6.870;2023-02-15T17:47:32;25.07;;;14.97;;
9712;SDS011;4895;50.926;6.870;2023-02-15T17:49:57;24.57;;;15.17;;
9712;SDS011;4895;50.926;6.870;2023-02-15T17:52:24;30.10;;;15.50;;
9712;SDS011;4895;50.926;6.870;2023-02-15T17:54:53;23.43;;;14.47;;
9712;SDS011;4895;50.926;6.870;2023-02-15T17:57:37;26.40;;;14.60;;
9712;SDS011;4895;50.926;6.870;2023-02-15T18:00:03;27.50;;;15.13;;
9712;SDS011;4895;50.926;6.870;2023-02-15T18:02:48;28.30;;;15.10;;
9712;SDS011;4895;50.926;6.870;2023-02-15T18:05:32;26.47;;;14.70;;
9712;SDS011;4895;50.926;6.870;2023-02-15T18:08:17;25.53;;;14.03;;
9712;SDS011;4895;50.926;6.870;2023-02-15T18:11:01;26.40;;;14.53;;
9712;SDS011;4895;50.926;6.870;2023-02-15T18:13:46;26.13;;;13.97;;
9712;SDS011;4895;50.926;6.870;2023-02-15T18:16:15;23.80;;;14.67;;
9712;SDS011;4895;50.926;6.870;2023-02-15T18:18:42;24.90;;;14.43;;
9712;SDS011;4895;50.926;6.870;2023-02-15T18:21:08;24.73;;;14.90;;
9712;SDS011;4895;50.926;6.870;2023-02-15T18:23:35;29.13;;;13.90;;
9712;SDS011;4895;50.926;6.870;2023-02-15T18:26:00;29.20;;;16.20;;
9712;SDS011;4895;50.926;6.870;2023-02-15T18:28:25;24.57;;;14.07;;
9712;SDS011;4895;50.926;6.870;2023-02-15T18:30:50;29.13;;;15.40;;
9712;SDS011;4895;50.926;6.870;2023-02-15T18:33:32;27.70;;;13.97;;
9712;SDS011;4895;50.926;6.870;2023-02-15T18:36:00;24.47;;;14.40;;
9712;SDS011;4895;50.926;6.870;2023-02-15T18:38:27;26.90;;;14.50;;
9712;SDS011;4895;50.926;6.870;2023-02-15T18:40:53;22.80;;;14.63;;
9712;SDS011;4895;50.926;6.870;2023-02-15T18:43:18;26.13;;;15.77;;
9712;SDS011;4895;50.926;6.870;2023-02-15T18:45:43;28.03;;;15.07;;
9712;SDS011;4895;50.926;6.870;2023-02-15T18:48:08;28.33;;;14.37;;
9712;SDS011;4895;50.926;6.870;2023-02-15T18:50:34;31.47;;;15.73;;
9712;SDS011;4895;50.926;6.870;2023-02-15T18:53:01;26.03;;;15.80;;
9712;SDS011;4895;50.926;6.870;2023-02-15T18:55:28;28.13;;;15.60;;
9712;SDS011;4895;50.926;6.870;2023-02-15T18:57:56;24.80;;;15.20;;
9712;SDS011;4895;50.926;6.870;2023-02-15T19:00:29;28.73;;;14.03;;
9712;SDS011;4895;50.926;6.870;2023-02-15T19:02:57;29.60;;;14.83;;
9712;SDS011;4895;50.926;6.870;2023-02-15T19:05:23;28.03;;;14.50;;
9712;SDS011;4895;50.926;6.870;2023-02-15T19:07:51;29.10;;;15.57;;
9712;SDS011;4895;50.926;6.870;2023-02-15T19:10:20;25.30;;;14.83;;
9712;SDS011;4895;50.926;6.870;2023-02-15T19:12:50;24.63;;;14.33;;
9712;SDS011;4895;50.926;6.870;2023-02-15T19:15:17;29.27;;;15.17;;
9712;SDS011;4895;50.926;6.870;2023-02-15T19:17:44;31.47;;;14.67;;
9712;SDS011;4895;50.926;6.870;2023-02-15T19:20:17;26.17;;;15.07;;
9712;SDS011;4895;50.926;6.870;2023-02-15T19:22:48;28.27;;;14.20;;
9712;SDS011;4895;50.926;6.870;2023-02-15T19:25:19;32.63;;;16.57;;
9712;SDS011;4895;50.926;6.870;2023-02-15T19:27:46;23.73;;;14.20;;
9712;SDS011;4895;50.926;6.870;2023-02-15T19:30:22;24.23;;;14.93;;
9712;SDS011;4895;50.926;6.870;2023-02-15T19:32:51;29.53;;;15.60;;
9712;SDS011;4895;50.926;6.870;2023-02-15T19:35:18;26.30;;;15.43;;
9712;SDS011;4895;50.926;6.870;2023-02-15T19:37:46;25.57;;;13.73;;
9712;SDS011;4895;50.926;6.870;2023-02-15T19:40:21;28.27;;;15.10;;
9712;SDS011;4895;50.926;6.870;2023-02-15T19:42:48;24.43;;;14.43;;
9712;SDS011;4895;50.926;6.870;2023-02-15T19:45:15;27.30;;;14.37;;
9712;SDS011;4895;50.926;6.870;2023-02-15T19:47:45;25.60;;;13.87;;
9712;SDS011;4895;50.926;6.870;2023-02-15T19:50:18;26.27;;;15.70;;
9712;SDS011;4895;50.926;6.870;2023-02-15T19:52:45;34.33;;;16.20;;
9712;SDS011;4895;50.926;6.870;2023-02-15T19:55:15;25.57;;;15.20;;
9712;SDS011;4895;50.926;6.870;2023-02-15T19:57:46;33.30;;;17.03;;
9712;SDS011;4895;50.926;6.870;2023-02-15T20:00:19;28.40;;;15.27;;
9712;SDS011;4895;50.926;6.870;2023-02-15T20:02:46;26.07;;;14.60;;
9712;SDS011;4895;50.926;6.870;2023-02-15T20:05:12;25.77;;;15.10;;
9712;SDS011;4895;50.926;6.870;2023-02-15T20:07:37;28.43;;;16.13;;
9712;SDS011;4895;50.926;6.870;2023-02-15T20:10:03;29.00;;;15.30;;
9712;SDS011;4895;50.926;6.870;2023-02-15T20:12:29;24.43;;;13.83;;
9712;SDS011;4895;50.926;6.870;2023-02-15T20:14:54;26.83;;;14.07;;
9712;SDS011;4895;50.926;6.870;2023-02-15T20:17:20;29.77;;;16.37;;